createdAt,value
2019-06-26T00:02:59.194Z,60.05
2019-06-26T00:08:05.681Z,60.63
2019-06-26T00:13:25.178Z,61.01
2019-06-26T00:18:19.465Z,60.97
2019-06-26T00:23:25.534Z,61.40
2019-06-26T00:28:31.612Z,61.93
2019-06-26T00:33:37.694Z,61.87
2019-06-26T00:38:43.896Z,62.73
2019-06-26T00:43:49.929Z,62.70
2019-06-26T00:48:55.901Z,63.33
2019-06-26T00:54:03.411Z,63.60
2019-06-26T00:59:09.384Z,63.68
2019-06-26T01:04:19.752Z,63.51
2019-06-26T01:09:25.724Z,63.61
2019-06-26T01:14:31.899Z,63.92
2019-06-26T01:19:37.871Z,63.96
2019-06-26T01:24:43.935Z,64.25
2019-06-26T01:29:49.910Z,64.75
2019-06-26T01:34:55.883Z,65.20
2019-06-26T01:40:01.857Z,65.70
2019-06-26T01:45:10.118Z,65.81
2019-06-26T01:50:16.667Z,65.96
2019-06-26T01:55:23.037Z,66.08
2019-06-26T02:00:28.911Z,66.18
2019-06-26T02:05:34.995Z,66.54
2019-06-26T02:10:41.058Z,66.99
2019-06-26T02:15:48.156Z,66.55
2019-06-26T02:20:54.235Z,66.90
2019-06-26T02:26:00.336Z,66.89
2019-06-26T02:31:06.687Z,66.83
2019-06-26T02:36:12.720Z,67.01
2019-06-26T02:41:18.879Z,67.55
2019-06-26T02:46:25.010Z,67.21
2019-06-26T02:51:32.031Z,67.37
2019-06-26T02:56:38.011Z,67.72
2019-06-26T03:01:44.567Z,67.32
2019-06-26T03:06:50.627Z,67.60
2019-06-26T03:11:56.702Z,67.76
2019-06-26T03:17:02.672Z,67.86
2019-06-26T03:22:08.949Z,67.40
2019-06-26T03:27:14.933Z,67.16
2019-06-26T03:32:21.004Z,66.67
2019-06-26T03:37:27.785Z,66.17
2019-06-26T03:42:33.876Z,65.61
2019-06-26T03:47:39.834Z,65.21
2019-06-26T03:52:45.827Z,66.00
2019-06-26T03:57:52.279Z,65.51
2019-06-26T04:02:58.460Z,65.56
2019-06-26T04:08:05.144Z,65.52
2019-06-26T04:13:11.115Z,66.17
2019-06-26T04:18:17.189Z,64.31
2019-06-26T04:23:23.226Z,58.42
2019-06-26T04:28:29.355Z,55.86
2019-06-26T04:33:35.924Z,53.61
2019-06-26T04:38:42.018Z,51.89
2019-06-26T04:43:48.311Z,51.04
2019-06-26T04:48:54.451Z,52.21
2019-06-26T04:54:00.525Z,49.83
2019-06-26T04:59:08.268Z,49.17
2019-06-26T05:04:14.507Z,49.26
2019-06-26T05:09:20.569Z,48.53
2019-06-26T05:14:27.276Z,48.97
2019-06-26T05:19:33.455Z,49.12
2019-06-26T05:24:40.405Z,48.63
2019-06-26T05:29:46.750Z,47.68
2019-06-26T05:34:52.911Z,47.66
2019-06-26T05:39:59.607Z,46.98
2019-06-26T05:45:07.060Z,46.55
2019-06-26T05:50:14.493Z,45.24
2019-06-26T05:55:21.289Z,46.37
2019-06-26T06:00:29.533Z,45.70
2019-06-26T06:05:35.583Z,44.98
2019-06-26T06:10:42.280Z,43.60
2019-06-26T06:15:48.351Z,44.71
2019-06-26T06:20:54.455Z,43.65
2019-06-26T06:26:00.710Z,44.58
2019-06-26T06:31:06.873Z,43.73
2019-06-26T06:36:13.154Z,44.32
2019-06-26T06:41:19.213Z,44.88
2019-06-26T06:46:25.503Z,45.25
2019-06-26T06:51:31.685Z,44.93
2019-06-26T06:56:38.058Z,45.70
2019-06-26T07:01:44.442Z,46.36
2019-06-26T07:06:50.740Z,45.71
2019-06-26T07:11:56.888Z,45.69
2019-06-26T07:17:16.088Z,47.01
2019-06-26T07:22:11.294Z,45.61
2019-06-26T07:27:17.458Z,47.77
2019-06-26T07:32:23.639Z,46.55
2019-06-26T07:37:30.229Z,47.46
2019-06-26T07:42:36.638Z,49.23
2019-06-26T07:47:44.322Z,48.27
2019-06-26T07:52:51.922Z,48.70
2019-06-26T07:57:58.293Z,49.88
2019-06-26T08:03:05.843Z,51.10
2019-06-26T08:08:14.665Z,51.27
2019-06-26T08:13:21.131Z,51.65
2019-06-26T08:18:27.304Z,51.63
2019-06-26T08:23:33.378Z,50.84
2019-06-26T08:28:39.859Z,52.37
2019-06-26T08:33:45.989Z,51.48
2019-06-26T08:38:52.005Z,50.78
2019-06-26T08:43:58.156Z,50.18
2019-06-26T08:49:04.365Z,49.71
2019-06-26T08:54:10.325Z,49.12
2019-06-26T08:59:16.403Z,49.48
2019-06-26T09:04:22.991Z,49.65
2019-06-26T09:09:28.957Z,48.97
2019-06-26T09:14:35.231Z,48.86
2019-06-26T09:19:41.453Z,47.66
2019-06-26T09:24:47.586Z,48.94
2019-06-26T09:29:53.662Z,46.42
2019-06-26T09:34:59.631Z,46.61
2019-06-26T09:40:08.269Z,48.40
2019-06-26T09:45:14.644Z,43.67
2019-06-26T09:50:21.157Z,45.57
2019-06-26T09:55:27.195Z,44.51
2019-06-26T10:00:33.489Z,45.64
2019-06-26T10:05:40.008Z,45.13
2019-06-26T10:10:46.236Z,45.12
2019-06-26T10:15:52.310Z,43.60
2019-06-26T10:20:58.378Z,43.72
2019-06-26T10:26:04.585Z,41.95
2019-06-26T10:31:10.736Z,41.46
2019-06-26T10:36:16.811Z,41.59
2019-06-26T10:41:22.886Z,42.10
2019-06-26T10:46:29.563Z,41.70
2019-06-26T10:51:35.639Z,41.26
2019-06-26T10:56:41.616Z,41.91
2019-06-26T11:01:47.689Z,39.91
2019-06-26T11:06:53.964Z,39.73
2019-06-26T11:12:00.100Z,39.51
2019-06-26T11:17:06.522Z,39.41
2019-06-26T11:22:12.599Z,37.89
2019-06-26T11:27:18.564Z,38.92
2019-06-26T11:32:24.534Z,39.14
2019-06-26T11:37:30.994Z,39.87
2019-06-26T11:42:37.094Z,37.17
2019-06-26T11:47:45.785Z,36.26
2019-06-26T11:52:50.874Z,37.37
2019-06-26T11:57:56.846Z,37.03
2019-06-26T12:03:02.926Z,38.27
2019-06-26T12:08:09.236Z,39.12
2019-06-26T12:13:15.502Z,35.73
2019-06-26T12:18:21.557Z,35.73
2019-06-26T12:23:27.615Z,36.99
2019-06-26T12:28:33.798Z,35.06
2019-06-26T12:33:39.907Z,35.76
2019-06-26T12:38:45.848Z,34.17
2019-06-26T12:43:51.818Z,35.69
2019-06-26T12:48:57.895Z,34.89
2019-06-26T12:54:04.067Z,33.48
2019-06-26T12:59:10.228Z,35.26
2019-06-26T13:04:16.311Z,34.25
2019-06-26T13:09:22.714Z,32.79
2019-06-26T13:14:28.717Z,34.39
2019-06-26T13:19:34.728Z,34.32
2019-06-26T13:24:43.988Z,32.72
2019-06-26T13:29:48.516Z,31.77
2019-06-26T13:34:54.481Z,30.95
2019-06-26T13:40:00.564Z,33.13
2019-06-26T13:45:08.375Z,32.02
2019-06-26T13:50:15.182Z,31.64
2019-06-26T13:55:21.349Z,33.98
2019-06-26T14:00:28.021Z,32.67
2019-06-26T14:05:34.406Z,32.94
2019-06-26T14:10:40.580Z,32.98
2019-06-26T14:15:46.660Z,34.56
2019-06-26T14:20:52.823Z,34.43
2019-06-26T14:25:58.899Z,34.88
2019-06-26T14:31:05.086Z,34.67
2019-06-26T14:36:12.236Z,34.84
2019-06-26T14:41:18.556Z,35.76
2019-06-26T14:46:24.635Z,35.68
2019-06-26T14:51:42.328Z,35.94
2019-06-26T14:56:38.419Z,37.24
2019-06-26T15:01:44.500Z,37.09
2019-06-26T15:06:50.724Z,37.25
2019-06-26T15:11:56.834Z,38.72
2019-06-26T15:17:02.809Z,37.07
2019-06-26T15:22:08.874Z,38.08
2019-06-26T15:27:15.063Z,37.02
2019-06-26T15:32:21.276Z,36.41
2019-06-26T15:37:27.273Z,36.95
2019-06-26T15:42:33.263Z,37.95
2019-06-26T15:47:40.777Z,37.45
2019-06-26T15:52:46.742Z,37.17
2019-06-26T15:57:52.621Z,37.41
2019-06-26T16:02:58.694Z,37.37
2019-06-26T16:08:04.967Z,40.06
2019-06-26T16:13:11.350Z,32.42
2019-06-26T16:18:22.026Z,32.58
2019-06-26T16:23:29.328Z,34.25
2019-06-26T16:28:35.708Z,33.98
2019-06-26T16:33:42.193Z,32.98
2019-06-26T16:38:48.264Z,35.06
2019-06-26T16:43:54.359Z,36.07
2019-06-26T16:49:00.410Z,35.79
2019-06-26T16:54:06.381Z,36.78
2019-06-26T16:59:12.253Z,37.00
2019-06-26T17:04:18.321Z,37.86
2019-06-26T17:09:24.396Z,37.48
2019-06-26T17:14:30.898Z,35.69
2019-06-26T17:19:37.162Z,37.15
2019-06-26T17:24:43.417Z,37.31
2019-06-26T17:29:49.401Z,37.55
2019-06-26T17:34:55.388Z,36.88
2019-06-26T17:40:01.450Z,36.77
2019-06-26T17:45:08.573Z,38.04
2019-06-26T17:50:15.681Z,39.84
2019-06-26T17:55:21.633Z,40.75
2019-06-26T18:00:32.195Z,41.47
2019-06-26T18:05:38.178Z,41.52
2019-06-26T18:10:44.203Z,41.86
2019-06-26T18:15:50.514Z,42.01
2019-06-26T18:20:56.592Z,42.33
2019-06-26T18:26:12.454Z,42.70
2019-06-26T18:31:10.367Z,42.92
2019-06-26T18:36:16.444Z,44.39
2019-06-26T18:41:22.430Z,46.50
2019-06-26T18:46:28.706Z,47.31
2019-06-26T18:51:34.775Z,47.17
2019-06-26T18:56:40.839Z,48.01
2019-06-26T19:01:46.938Z,48.31
2019-06-26T19:06:53.095Z,49.32
2019-06-26T19:11:59.164Z,48.88
2019-06-26T19:17:06.466Z,50.22
2019-06-26T19:22:12.535Z,50.84
2019-06-26T19:27:18.508Z,52.79
2019-06-26T19:32:24.859Z,54.08
2019-06-26T19:37:30.891Z,51.99
2019-06-26T19:42:37.197Z,50.62
2019-06-26T19:47:43.308Z,51.80
2019-06-26T19:52:49.489Z,53.23
2019-06-26T19:57:55.454Z,55.33
2019-06-26T20:03:01.333Z,55.92
2019-06-26T20:08:07.499Z,56.71
2019-06-26T20:13:13.466Z,57.27
2019-06-26T20:18:20.269Z,58.75
2019-06-26T20:23:26.334Z,59.36
2019-06-26T20:28:33.247Z,59.79
2019-06-26T20:33:39.193Z,59.68
2019-06-26T20:38:45.157Z,60.95
2019-06-26T20:43:51.031Z,61.00
2019-06-26T20:48:56.904Z,60.52
2019-06-26T20:54:02.885Z,60.99
2019-06-26T20:59:09.154Z,60.72
2019-06-26T21:04:15.226Z,60.74
2019-06-26T21:09:21.140Z,60.80
2019-06-26T21:14:27.055Z,61.33
2019-06-26T21:19:33.349Z,61.69
2019-06-26T21:24:39.433Z,62.57
2019-06-26T21:29:45.487Z,62.97
2019-06-26T21:34:51.312Z,63.93
2019-06-26T21:39:57.327Z,64.25
2019-06-26T21:45:03.396Z,64.95
2019-06-26T21:50:09.865Z,65.48
2019-06-26T21:55:15.850Z,66.32
2019-06-26T22:00:39.742Z,66.69
2019-06-26T22:06:03.529Z,67.29
2019-06-26T22:11:11.035Z,67.60
2019-06-26T22:16:17.118Z,68.18
2019-06-26T22:21:23.802Z,68.65
2019-06-26T22:26:30.077Z,68.31
2019-06-26T22:31:36.456Z,68.86
2019-06-26T22:36:51.233Z,68.66
2019-06-26T22:41:51.335Z,68.59
2019-06-26T22:46:57.335Z,68.54
2019-06-26T22:52:03.410Z,69.11
2019-06-26T22:57:11.125Z,69.07
2019-06-26T23:02:17.193Z,68.40
2019-06-26T23:07:23.167Z,68.06
2019-06-26T23:12:29.040Z,68.41
2019-06-26T23:17:35.005Z,65.97
2019-06-26T23:22:41.492Z,65.67
2019-06-26T23:27:47.561Z,66.44
2019-06-26T23:32:53.524Z,67.27
2019-06-26T23:37:59.495Z,66.57
2019-06-26T23:43:05.699Z,65.16
2019-06-26T23:48:11.648Z,64.10
2019-06-26T23:53:17.630Z,64.50
2019-06-26T23:58:23.692Z,65.33
